createdAt,value
2023-04-07T00:02:16.760Z,99574.50
2023-04-07T00:05:20.103Z,99574.03
2023-04-07T00:08:22.965Z,99568.69
2023-04-07T00:11:26.488Z,99569.66
2023-04-07T00:14:30.179Z,99568.69
2023-04-07T00:17:33.399Z,99566.16
2023-04-07T00:20:36.838Z,99565.75
2023-04-07T00:23:39.774Z,99561.56
2023-04-07T00:26:42.739Z,99565.87
2023-04-07T00:29:46.965Z,99558.78
2023-04-07T00:32:51.567Z,99558.84
2023-04-07T00:35:54.873Z,99553.19
2023-04-07T00:38:57.886Z,99558.13
2023-04-07T00:42:01.569Z,99554.66
2023-04-07T00:45:04.932Z,99551.03
2023-04-07T00:48:08.291Z,99544.37
2023-04-07T00:51:11.577Z,99544.41
2023-04-07T00:54:15.534Z,99546.56
2023-04-07T00:57:18.497Z,99546.31
2023-04-07T01:00:23.317Z,99534.25
2023-04-07T01:03:34.234Z,99535.31
2023-04-07T01:06:40.775Z,99533.12
2023-04-07T01:09:51.809Z,99532.94
2023-04-07T01:13:08.738Z,99533.88
2023-04-07T01:16:14.129Z,99528.66
2023-04-07T01:19:30.761Z,99524.84
2023-04-07T01:22:43.371Z,99521.84
2023-04-07T01:26:10.053Z,99526.72
2023-04-07T01:29:25.394Z,99523.38
2023-04-07T01:32:30.223Z,99516.88
2023-04-07T01:35:35.475Z,99518.25
2023-04-07T01:38:39.164Z,99521.13
2023-04-07T01:41:42.391Z,99507.25
2023-04-07T01:44:46.992Z,99513.87
2023-04-07T01:47:50.491Z,99503.09
2023-04-07T01:50:55.420Z,99512.31
2023-04-07T01:54:00.980Z,99498.59
2023-04-07T01:57:04.358Z,99507.41
2023-04-07T02:00:08.777Z,99515.28
2023-04-07T02:03:24.669Z,99514.94
2023-04-07T02:06:33.843Z,99517.34
2023-04-07T02:09:39.275Z,99521.53
2023-04-07T02:12:42.501Z,99507.75
2023-04-07T02:15:46.022Z,99501.41
2023-04-07T02:18:49.608Z,99513.37
2023-04-07T02:21:53.099Z,99509.91
2023-04-07T02:24:57.617Z,99517.28
2023-04-07T02:28:03.301Z,99510.16
2023-04-07T02:31:06.254Z,99514.28
2023-04-07T02:34:10.180Z,99517.53
2023-04-07T02:37:15.516Z,99514.53
2023-04-07T02:40:18.779Z,99513.37
2023-04-07T02:43:21.792Z,99511.34
2023-04-07T02:46:27.393Z,99510.09
2023-04-07T02:49:30.329Z,99511.47
2023-04-07T02:52:33.592Z,99498.84
2023-04-07T02:55:37.611Z,99506.06
2023-04-07T02:58:41.109Z,99504.94
2023-04-07T03:01:44.331Z,99506.03
2023-04-07T03:04:48.356Z,99497.94
2023-04-07T03:07:52.180Z,99508.31
2023-04-07T03:10:55.579Z,99504.16
2023-04-07T03:14:00.035Z,99512.59
2023-04-07T03:17:04.645Z,99509.62
2023-04-07T03:20:08.605Z,99507.25
2023-04-07T03:23:13.800Z,99508.78
2023-04-07T03:26:18.739Z,99509.19
2023-04-07T03:29:22.094Z,99504.28
2023-04-07T03:32:27.565Z,99506.75
2023-04-07T03:35:32.410Z,99513.69
2023-04-07T03:38:35.677Z,99516.78
2023-04-07T03:41:39.155Z,99519.63
2023-04-07T03:44:42.737Z,99518.84
2023-04-07T03:47:46.504Z,99519.97
2023-04-07T03:50:49.653Z,99522.22
2023-04-07T03:53:53.533Z,99519.50
2023-04-07T03:57:00.004Z,99518.84
2023-04-07T04:00:04.022Z,99516.56
2023-04-07T04:03:19.196Z,99520.03
2023-04-07T04:06:23.485Z,99521.47
2023-04-07T04:09:26.998Z,99529.50
2023-04-07T04:12:30.341Z,99527.28
2023-04-07T04:15:34.644Z,99526.44
2023-04-07T04:18:39.205Z,99526.09
2023-04-07T04:21:42.455Z,99528.31
2023-04-07T04:24:46.278Z,99523.38
2023-04-07T04:27:49.696Z,99528.91
2023-04-07T04:30:53.219Z,99528.13
2023-04-07T04:33:56.357Z,99530.63
2023-04-07T04:37:00.175Z,99531.72
2023-04-07T04:40:04.277Z,99541.28
2023-04-07T04:43:09.740Z,99549.44
2023-04-07T04:46:14.334Z,99550.03
2023-04-07T04:49:19.906Z,99552.31
2023-04-07T04:52:23.143Z,99564.41
2023-04-07T04:55:27.513Z,99560.47
2023-04-07T04:58:32.491Z,99554.69
2023-04-07T05:01:35.758Z,99564.78
2023-04-07T05:04:39.061Z,99564.03
2023-04-07T05:07:43.318Z,99561.53
2023-04-07T05:10:47.777Z,99565.22
2023-04-07T05:13:52.602Z,99557.22
2023-04-07T05:16:55.757Z,99559.91
2023-04-07T05:19:59.340Z,99560.81
2023-04-07T05:23:03.235Z,99573.34
2023-04-07T05:26:07.105Z,99572.88
2023-04-07T05:29:12.457Z,99575.75
2023-04-07T05:32:15.768Z,99568.84
2023-04-07T05:35:19.015Z,99573.44
2023-04-07T05:38:24.596Z,99579.19
2023-04-07T05:41:29.891Z,99577.09
2023-04-07T05:44:33.514Z,99576.94
2023-04-07T05:47:36.691Z,99583.44
2023-04-07T05:50:41.763Z,99584.19
2023-04-07T05:53:44.846Z,99592.00
2023-04-07T05:56:49.000Z,99581.53
2023-04-07T05:59:52.530Z,99589.91
2023-04-07T06:02:56.347Z,99584.66
2023-04-07T06:06:00.919Z,99585.84
2023-04-07T06:09:04.595Z,99581.44
2023-04-07T06:12:09.437Z,99576.78
2023-04-07T06:15:12.629Z,99578.47
2023-04-07T06:18:15.986Z,99586.16
2023-04-07T06:21:18.927Z,99585.50
2023-04-07T06:24:25.461Z,99577.66
2023-04-07T06:27:28.491Z,99576.06
2023-04-07T06:30:32.178Z,99578.72
2023-04-07T06:33:35.511Z,99577.47
2023-04-07T06:36:38.769Z,99589.66
2023-04-07T06:39:41.788Z,99586.41
2023-04-07T06:42:46.274Z,99593.44
2023-04-07T06:45:52.447Z,99591.91
2023-04-07T06:48:55.684Z,99583.00
2023-04-07T06:51:59.462Z,99589.94
2023-04-07T06:55:02.813Z,99589.06
2023-04-07T06:58:05.940Z,99596.63
2023-04-07T07:01:09.443Z,99593.94
2023-04-07T07:04:12.536Z,99602.00
2023-04-07T07:07:16.111Z,99603.94
2023-04-07T07:10:20.726Z,99618.00
2023-04-07T07:13:26.645Z,99612.87
2023-04-07T07:16:29.490Z,99623.03
2023-04-07T07:19:32.693Z,99620.25
2023-04-07T07:22:35.984Z,99624.47
2023-04-07T07:25:39.356Z,99620.50
2023-04-07T07:28:42.314Z,99629.97
2023-04-07T07:31:45.986Z,99633.25
2023-04-07T07:34:48.851Z,99635.44
2023-04-07T07:37:53.020Z,99647.91
2023-04-07T07:40:56.092Z,99638.22
2023-04-07T07:43:59.302Z,99643.59
2023-04-07T07:47:02.263Z,99653.44
2023-04-07T07:50:05.954Z,99654.47
2023-04-07T07:53:08.912Z,99657.13
2023-04-07T07:56:12.124Z,99661.06
2023-04-07T07:59:16.638Z,99663.38
2023-04-07T08:02:20.975Z,99664.22
2023-04-07T08:05:24.391Z,99674.25
2023-04-07T08:08:27.268Z,99674.59
2023-04-07T08:11:30.423Z,99665.09
2023-04-07T08:14:33.924Z,99667.28
2023-04-07T08:17:37.182Z,99677.50
2023-04-07T08:20:40.924Z,99688.47
2023-04-07T08:23:44.176Z,99682.19
2023-04-07T08:26:47.276Z,99681.19
2023-04-07T08:30:00.609Z,99678.59
2023-04-07T08:33:04.335Z,99678.44
2023-04-07T08:36:07.912Z,99682.09
2023-04-07T08:39:10.966Z,99690.56
2023-04-07T08:42:14.444Z,99686.47
2023-04-07T08:45:19.424Z,99687.25
2023-04-07T08:48:27.272Z,99698.88
2023-04-07T08:51:33.307Z,99692.72
2023-04-07T08:54:36.903Z,99691.31
2023-04-07T08:57:40.258Z,99696.34
2023-04-07T09:00:49.801Z,99702.25
2023-04-07T09:03:52.997Z,99695.81
2023-04-07T09:06:57.412Z,99695.22
2023-04-07T09:10:01.738Z,99688.84
2023-04-07T09:13:04.986Z,99693.41
2023-04-07T09:16:08.157Z,99689.06
2023-04-07T09:19:11.517Z,99689.37
2023-04-07T09:22:14.951Z,99694.53
2023-04-07T09:25:20.037Z,99692.50
2023-04-07T09:28:23.120Z,99691.38
2023-04-07T09:31:50.350Z,99696.50
2023-04-07T09:34:59.306Z,99691.19
2023-04-07T09:38:07.732Z,99689.28
2023-04-07T09:41:11.683Z,99695.63
2023-04-07T09:44:15.058Z,99694.91
2023-04-07T09:47:18.153Z,99691.88
2023-04-07T09:50:35.441Z,99696.87
2023-04-07T09:53:50.103Z,99692.44
2023-04-07T09:56:53.762Z,99694.25
2023-04-07T09:59:57.306Z,99696.66
2023-04-07T10:03:00.942Z,99692.88
2023-04-07T10:06:06.501Z,99693.75
2023-04-07T10:09:10.654Z,99699.81
2023-04-07T10:12:14.673Z,99697.47
2023-04-07T10:15:17.727Z,99701.94
2023-04-07T10:18:21.637Z,99700.88
2023-04-07T10:21:26.037Z,99705.22
2023-04-07T10:24:47.548Z,99711.53
2023-04-07T10:27:54.002Z,99700.69
2023-04-07T10:30:58.305Z,99708.59
2023-04-07T10:34:02.855Z,99696.56
2023-04-07T10:37:13.829Z,99705.81
2023-04-07T10:40:19.577Z,99701.03
2023-04-07T10:43:44.332Z,99697.63
2023-04-07T10:46:48.838Z,99695.38
2023-04-07T10:50:20.612Z,99691.25
2023-04-07T10:53:24.348Z,99699.34
2023-04-07T10:56:28.144Z,99703.37
2023-04-07T10:59:32.295Z,99706.69
2023-04-07T11:02:36.044Z,99698.78
2023-04-07T11:05:42.514Z,99701.28
2023-04-07T11:08:49.322Z,99705.63
2023-04-07T11:11:53.616Z,99708.28
2023-04-07T11:14:57.483Z,99707.91
2023-04-07T11:18:23.478Z,99709.66
2023-04-07T11:21:26.628Z,99710.59
2023-04-07T11:24:39.446Z,99711.31
2023-04-07T11:27:44.883Z,99713.50
2023-04-07T11:30:54.143Z,99711.56
2023-04-07T11:34:00.032Z,99717.81
2023-04-07T11:37:26.304Z,99702.69
2023-04-07T11:40:37.157Z,99713.81
2023-04-07T11:43:45.406Z,99711.97
2023-04-07T11:46:59.986Z,99703.81
2023-04-07T11:50:03.052Z,99700.91
2023-04-07T11:53:06.280Z,99705.81
2023-04-07T11:56:16.576Z,99713.53
2023-04-07T11:59:25.022Z,99697.94
2023-04-07T12:02:34.604Z,99709.19
2023-04-07T12:05:45.183Z,99707.41
2023-04-07T12:08:48.204Z,99708.69
2023-04-07T12:11:51.573Z,99710.78
2023-04-07T12:14:54.987Z,99712.25
2023-04-07T12:17:58.180Z,99706.25
2023-04-07T12:21:01.642Z,99707.09
2023-04-07T12:24:04.929Z,99709.47
2023-04-07T12:27:07.949Z,99699.41
2023-04-07T12:30:13.225Z,99697.50
2023-04-07T12:33:16.991Z,99702.25
2023-04-07T12:36:20.257Z,99705.13
2023-04-07T12:39:23.626Z,99703.63
2023-04-07T12:42:27.348Z,99705.72
2023-04-07T12:45:31.372Z,99709.91
2023-04-07T12:48:34.824Z,99704.78
2023-04-07T12:51:40.115Z,99710.25
2023-04-07T12:54:45.093Z,99702.88
2023-04-07T12:57:48.475Z,99708.84
2023-04-07T13:00:52.383Z,99709.72
2023-04-07T13:03:56.271Z,99705.47
2023-04-07T13:07:01.075Z,99695.13
2023-04-07T13:10:06.242Z,99702.13
2023-04-07T13:13:09.376Z,99702.56
2023-04-07T13:16:12.433Z,99704.75
2023-04-07T13:19:16.205Z,99706.22
2023-04-07T13:22:22.140Z,99707.62
2023-04-07T13:25:27.543Z,99699.38
2023-04-07T13:28:30.554Z,99701.13
2023-04-07T13:31:33.769Z,99699.81
2023-04-07T13:34:38.276Z,99699.50
2023-04-07T13:37:41.499Z,99704.63
2023-04-07T13:40:45.374Z,99702.75
2023-04-07T13:43:49.145Z,99707.78
2023-04-07T13:46:52.779Z,99705.81
2023-04-07T13:49:56.178Z,99713.03
2023-04-07T13:52:59.069Z,99709.41
2023-04-07T13:56:03.684Z,99717.13
2023-04-07T13:59:07.818Z,99713.47
2023-04-07T14:02:11.533Z,99719.66
2023-04-07T14:05:14.731Z,99716.25
2023-04-07T14:08:19.163Z,99714.44
2023-04-07T14:11:22.800Z,99711.31
2023-04-07T14:14:25.743Z,99711.81
2023-04-07T14:17:29.047Z,99717.31
2023-04-07T14:20:32.107Z,99717.22
2023-04-07T14:23:37.633Z,99716.84
2023-04-07T14:26:40.797Z,99721.38
2023-04-07T14:29:44.003Z,99723.28
2023-04-07T14:32:47.078Z,99721.63
2023-04-07T14:35:50.345Z,99717.03
2023-04-07T14:38:54.342Z,99718.25
2023-04-07T14:41:57.606Z,99725.38
2023-04-07T14:45:00.645Z,99726.16
2023-04-07T14:48:04.010Z,99728.94
2023-04-07T14:51:12.983Z,99726.16
2023-04-07T14:54:16.172Z,99727.31
2023-04-07T14:57:19.786Z,99725.28
2023-04-07T15:00:25.434Z,99727.56
2023-04-07T15:03:29.120Z,99730.19
2023-04-07T15:06:34.064Z,99723.09
2023-04-07T15:09:36.904Z,99723.31
2023-04-07T15:12:40.981Z,99720.06
2023-04-07T15:15:43.860Z,99725.63
2023-04-07T15:18:48.388Z,99727.19
2023-04-07T15:21:51.284Z,99718.41
2023-04-07T15:24:54.429Z,99725.56
2023-04-07T15:27:57.395Z,99730.62
2023-04-07T15:31:01.399Z,99730.56
2023-04-07T15:34:04.542Z,99732.50
2023-04-07T15:37:08.597Z,99728.41
2023-04-07T15:40:11.897Z,99728.66
2023-04-07T15:43:15.079Z,99736.13
2023-04-07T15:46:17.943Z,99732.31
2023-04-07T15:49:24.311Z,99736.56
2023-04-07T15:52:29.247Z,99737.47
2023-04-07T15:55:34.939Z,99747.72
2023-04-07T15:58:38.997Z,99744.22
2023-04-07T16:01:42.458Z,99737.84
2023-04-07T16:04:47.615Z,99740.16
2023-04-07T16:07:51.542Z,99745.47
2023-04-07T16:10:54.671Z,99745.22
2023-04-07T16:13:57.610Z,99741.97
2023-04-07T16:17:00.980Z,99745.28
2023-04-07T16:20:04.737Z,99747.53
2023-04-07T16:23:08.082Z,99740.56
2023-04-07T16:26:11.187Z,99746.81
2023-04-07T16:29:14.384Z,99750.22
2023-04-07T16:32:17.277Z,99747.81
2023-04-07T16:35:20.654Z,99749.41
2023-04-07T16:38:24.242Z,99755.81
2023-04-07T16:41:27.603Z,99758.31
2023-04-07T16:44:32.724Z,99758.19
2023-04-07T16:47:36.908Z,99768.25
2023-04-07T16:50:44.206Z,99775.19
2023-04-07T16:53:48.155Z,99768.97
2023-04-07T16:56:51.992Z,99774.16
2023-04-07T16:59:55.339Z,99777.50
2023-04-07T17:02:58.377Z,99784.25
2023-04-07T17:06:05.644Z,99783.38
2023-04-07T17:09:08.594Z,99794.91
2023-04-07T17:12:13.079Z,99784.94
2023-04-07T17:15:16.204Z,99794.16
2023-04-07T17:18:20.846Z,99784.53
2023-04-07T17:21:23.713Z,99790.34
2023-04-07T17:24:26.881Z,99800.66
2023-04-07T17:27:29.866Z,99802.09
2023-04-07T17:30:33.238Z,99808.63
2023-04-07T17:33:36.239Z,99804.22
2023-04-07T17:36:39.450Z,99806.47
2023-04-07T17:39:42.535Z,99812.53
2023-04-07T17:42:45.985Z,99810.37
2023-04-07T17:45:48.915Z,99822.72
2023-04-07T17:48:52.401Z,99825.06
2023-04-07T17:51:56.654Z,99825.87
2023-04-07T17:55:01.173Z,99827.88
2023-04-07T17:58:04.049Z,99843.69
2023-04-07T18:01:12.572Z,99849.97
2023-04-07T18:04:17.915Z,99849.19
2023-04-07T18:07:21.379Z,99841.00
2023-04-07T18:10:26.111Z,99843.81
2023-04-07T18:13:30.480Z,99848.37
2023-04-07T18:16:34.279Z,99860.47
2023-04-07T18:19:37.584Z,99854.88
2023-04-07T18:22:41.047Z,99864.72
2023-04-07T18:25:44.061Z,99865.50
2023-04-07T18:28:47.369Z,99873.81
2023-04-07T18:31:50.608Z,99878.16
2023-04-07T18:34:54.961Z,99884.34
2023-04-07T18:37:59.216Z,99883.34
2023-04-07T18:41:02.618Z,99883.31
2023-04-07T18:44:05.652Z,99890.72
2023-04-07T18:47:08.891Z,99892.44
2023-04-07T18:50:12.191Z,99893.06
2023-04-07T18:53:17.100Z,99892.66
2023-04-07T18:56:22.742Z,99889.09
2023-04-07T18:59:29.239Z,99890.25
2023-04-07T19:02:32.229Z,99888.91
2023-04-07T19:05:37.545Z,99887.34
2023-04-07T19:08:41.141Z,99894.06
2023-04-07T19:11:44.964Z,99895.22
2023-04-07T19:14:48.045Z,99893.28
2023-04-07T19:17:52.861Z,99897.09
2023-04-07T19:20:56.143Z,99894.84
2023-04-07T19:23:59.940Z,99898.69
2023-04-07T19:27:03.393Z,99896.09
2023-04-07T19:30:07.563Z,99895.63
2023-04-07T19:33:11.925Z,99894.53
2023-04-07T19:36:15.517Z,99891.72
2023-04-07T19:39:18.696Z,99897.22
2023-04-07T19:42:22.051Z,99901.00
2023-04-07T19:45:25.734Z,99900.78
2023-04-07T19:48:29.836Z,99900.91
2023-04-07T19:51:33.251Z,99904.84
2023-04-07T19:54:37.009Z,99902.22
2023-04-07T19:57:43.284Z,99905.81
2023-04-07T20:00:49.819Z,99911.53
2023-04-07T20:03:53.181Z,99914.81
2023-04-07T20:06:56.239Z,99914.47
2023-04-07T20:10:00.155Z,99915.22
2023-04-07T20:13:04.565Z,99916.81
2023-04-07T20:16:09.196Z,99913.22
2023-04-07T20:19:12.291Z,99904.00
2023-04-07T20:22:15.848Z,99898.75
2023-04-07T20:25:18.939Z,99902.22
2023-04-07T20:28:22.446Z,99906.84
2023-04-07T20:31:25.643Z,99912.88
2023-04-07T20:34:29.276Z,99909.50
2023-04-07T20:37:32.223Z,99917.13
2023-04-07T20:40:37.053Z,99917.22
2023-04-07T20:43:40.172Z,99916.25
2023-04-07T20:46:44.403Z,99915.78
2023-04-07T20:49:47.384Z,99926.34
2023-04-07T20:52:50.636Z,99924.31
2023-04-07T20:55:53.674Z,99920.03
2023-04-07T20:58:56.847Z,99919.53
2023-04-07T21:01:59.975Z,99924.87
2023-04-07T21:05:04.216Z,99928.28
2023-04-07T21:08:08.578Z,99928.34
2023-04-07T21:11:11.756Z,99927.31
2023-04-07T21:14:14.710Z,99930.56
2023-04-07T21:17:18.023Z,99933.25
2023-04-07T21:20:20.876Z,99922.47
2023-04-07T21:23:24.087Z,99919.09
2023-04-07T21:26:27.389Z,99922.03
2023-04-07T21:29:33.263Z,99923.38
2023-04-07T21:32:36.773Z,99919.03
2023-04-07T21:35:40.572Z,99920.09
2023-04-07T21:38:43.661Z,99919.50
2023-04-07T21:41:46.736Z,99924.56
2023-04-07T21:44:50.067Z,99923.72
2023-04-07T21:47:53.320Z,99924.56
2023-04-07T21:50:56.700Z,99930.31
2023-04-07T21:53:59.885Z,99938.72
2023-04-07T21:57:02.839Z,99939.81
2023-04-07T22:00:07.472Z,99945.84
2023-04-07T22:03:17.548Z,99935.47
2023-04-07T22:06:20.943Z,99934.59
2023-04-07T22:09:24.334Z,99930.88
2023-04-07T22:12:27.792Z,99931.72
2023-04-07T22:15:30.869Z,99932.19
2023-04-07T22:18:34.039Z,99937.75
2023-04-07T22:21:36.933Z,99939.78
2023-04-07T22:24:40.379Z,99942.94
2023-04-07T22:27:43.331Z,99944.19
2023-04-07T22:30:46.563Z,99942.28
2023-04-07T22:33:49.796Z,99944.31
2023-04-07T22:36:54.368Z,99943.19
2023-04-07T22:39:57.235Z,99947.75
2023-04-07T22:43:02.280Z,99949.22
2023-04-07T22:46:05.280Z,99949.66
2023-04-07T22:49:08.566Z,99958.19
2023-04-07T22:52:11.479Z,99957.00
2023-04-07T22:55:14.737Z,99954.31
2023-04-07T22:58:17.747Z,99963.81
2023-04-07T23:01:21.137Z,99970.50
2023-04-07T23:04:24.894Z,99961.56
2023-04-07T23:07:28.066Z,99960.59
2023-04-07T23:10:32.221Z,99967.12
2023-04-07T23:13:35.404Z,99964.13
2023-04-07T23:16:38.369Z,99969.50
2023-04-07T23:19:42.748Z,99964.59
2023-04-07T23:22:45.824Z,99968.72
2023-04-07T23:25:49.738Z,99970.75
2023-04-07T23:28:52.693Z,99961.13
2023-04-07T23:31:56.036Z,99967.59
2023-04-07T23:34:59.005Z,99969.38
2023-04-07T23:38:02.521Z,99968.13
2023-04-07T23:41:05.439Z,99967.97
2023-04-07T23:44:08.911Z,99968.47
2023-04-07T23:47:11.796Z,99970.91
2023-04-07T23:50:15.032Z,99968.38
2023-04-07T23:53:18.352Z,99971.75
2023-04-07T23:56:21.720Z,99968.13
2023-04-07T23:59:25.070Z,99973.22
